createdAt,value
2023-04-15T00:01:37.381Z,63.55
2023-04-15T00:04:01.048Z,59.30
2023-04-15T00:06:24.944Z,59.53
2023-04-15T00:08:48.812Z,61.15
2023-04-15T00:11:12.595Z,71.32
2023-04-15T00:13:36.175Z,66.32
2023-04-15T00:16:01.626Z,64.28
2023-04-15T00:18:26.160Z,62.85
2023-04-15T00:20:49.825Z,64.00
2023-04-15T00:23:13.687Z,66.07
2023-04-15T00:25:37.287Z,61.88
2023-04-15T00:28:00.884Z,64.07
2023-04-15T00:30:25.758Z,65.93
2023-04-15T00:32:51.090Z,67.97
2023-04-15T00:35:18.289Z,74.63
2023-04-15T00:37:44.144Z,66.95
2023-04-15T00:40:14.102Z,70.07
2023-04-15T00:42:38.180Z,68.18
2023-04-15T00:45:01.820Z,71.07
2023-04-15T00:47:25.400Z,71.53
2023-04-15T00:49:50.415Z,72.53
2023-04-15T00:52:15.109Z,86.32
2023-04-15T00:54:38.844Z,71.63
2023-04-15T00:57:03.580Z,73.03
2023-04-15T00:59:27.541Z,83.28
2023-04-15T01:01:51.951Z,78.32
2023-04-15T01:04:15.878Z,81.70
2023-04-15T01:06:41.157Z,80.63
2023-04-15T01:09:05.097Z,78.80
2023-04-15T01:11:29.311Z,89.70
2023-04-15T01:13:53.408Z,91.28
2023-04-15T01:16:18.031Z,94.25
2023-04-15T01:18:41.895Z,91.55
2023-04-15T01:21:07.850Z,83.53
2023-04-15T01:23:34.027Z,88.65
2023-04-15T01:26:00.272Z,87.15
2023-04-15T01:28:23.944Z,90.85
2023-04-15T01:30:47.532Z,98.50
2023-04-15T01:33:12.273Z,95.07
2023-04-15T01:35:35.834Z,93.03
2023-04-15T01:38:06.597Z,103.45
2023-04-15T01:40:30.276Z,92.03
2023-04-15T01:42:56.701Z,92.85
2023-04-15T01:45:20.490Z,106.30
2023-04-15T01:47:44.050Z,94.97
2023-04-15T01:50:09.741Z,108.22
2023-04-15T01:52:33.312Z,98.43
2023-04-15T01:54:57.220Z,97.25
2023-04-15T01:57:20.947Z,88.93
2023-04-15T01:59:46.149Z,102.30
2023-04-15T02:02:10.647Z,92.85
2023-04-15T02:04:34.400Z,102.93
2023-04-15T02:06:57.957Z,99.00
2023-04-15T02:09:21.668Z,102.03
2023-04-15T02:11:45.187Z,100.22
2023-04-15T02:14:09.512Z,107.13
2023-04-15T02:16:34.894Z,103.40
2023-04-15T02:18:58.679Z,103.72
2023-04-15T02:21:22.669Z,104.00
2023-04-15T02:23:48.355Z,109.40
2023-04-15T02:26:12.020Z,105.47
2023-04-15T02:28:35.868Z,98.97
2023-04-15T02:30:59.895Z,99.45
2023-04-15T02:33:25.209Z,106.32
2023-04-15T02:35:48.738Z,100.10
2023-04-15T02:38:12.639Z,97.50
2023-04-15T02:40:36.182Z,100.93
2023-04-15T02:43:00.737Z,88.30
2023-04-15T02:45:27.623Z,102.05
2023-04-15T02:47:51.579Z,103.75
2023-04-15T02:50:17.238Z,103.32
2023-04-15T02:52:42.288Z,94.95
2023-04-15T02:55:08.223Z,104.70
2023-04-15T02:57:32.190Z,106.43
2023-04-15T03:00:01.406Z,99.45
2023-04-15T03:02:26.256Z,104.70
2023-04-15T03:04:49.976Z,103.40
2023-04-15T03:07:15.216Z,87.75
2023-04-15T03:09:40.408Z,98.45
2023-04-15T03:12:04.792Z,102.55
2023-04-15T03:14:28.314Z,94.85
2023-04-15T03:16:52.055Z,105.10
2023-04-15T03:19:15.986Z,93.82
2023-04-15T03:21:40.482Z,100.43
2023-04-15T03:24:07.329Z,95.15
2023-04-15T03:26:32.580Z,90.43
2023-04-15T03:29:00.086Z,89.97
2023-04-15T03:31:24.176Z,93.95
2023-04-15T03:33:47.795Z,88.55
2023-04-15T03:36:11.512Z,92.10
2023-04-15T03:38:35.047Z,91.80
2023-04-15T03:41:00.027Z,95.35
2023-04-15T03:43:23.554Z,88.50
2023-04-15T03:45:47.175Z,89.78
2023-04-15T03:48:17.666Z,93.68
2023-04-15T03:50:41.689Z,90.50
2023-04-15T03:53:05.398Z,88.20
2023-04-15T03:55:29.071Z,97.30
2023-04-15T03:57:53.950Z,88.00
2023-04-15T04:00:17.685Z,84.47
2023-04-15T04:02:41.621Z,90.85
2023-04-15T04:05:06.058Z,83.90
2023-04-15T04:07:29.936Z,90.10
2023-04-15T04:09:53.683Z,90.22
2023-04-15T04:12:17.283Z,81.72
2023-04-15T04:14:42.329Z,78.32
2023-04-15T04:17:06.282Z,73.00
2023-04-15T04:19:30.024Z,84.30
2023-04-15T04:21:53.876Z,85.00
2023-04-15T04:24:17.562Z,77.60
2023-04-15T04:26:41.315Z,79.20
2023-04-15T04:29:05.046Z,86.88
2023-04-15T04:31:30.115Z,79.53
2023-04-15T04:33:53.896Z,76.68
2023-04-15T04:36:17.409Z,75.95
2023-04-15T04:38:40.979Z,79.18
2023-04-15T04:41:04.536Z,80.00
2023-04-15T04:43:28.189Z,76.28
2023-04-15T04:45:52.147Z,81.07
2023-04-15T04:48:17.467Z,76.45
2023-04-15T04:50:41.207Z,71.07
2023-04-15T04:53:04.862Z,75.53
2023-04-15T04:55:28.414Z,79.03
2023-04-15T04:57:52.115Z,78.03
2023-04-15T05:00:16.140Z,80.60
2023-04-15T05:02:39.950Z,74.10
2023-04-15T05:05:05.331Z,79.30
2023-04-15T05:07:29.000Z,72.57
2023-04-15T05:09:52.513Z,70.47
2023-04-15T05:12:16.210Z,72.75
2023-04-15T05:14:39.894Z,75.82
2023-04-15T05:17:03.572Z,69.95
2023-04-15T05:19:27.185Z,73.45
2023-04-15T05:21:52.181Z,62.28
2023-04-15T05:24:15.799Z,67.85
2023-04-15T05:26:39.498Z,61.42
2023-04-15T05:29:03.148Z,62.35
2023-04-15T05:31:27.008Z,65.20
2023-04-15T05:33:50.675Z,61.05
2023-04-15T05:36:14.223Z,59.28
2023-04-15T05:38:39.095Z,57.10
2023-04-15T05:41:02.817Z,55.38
2023-04-15T05:43:26.482Z,55.33
2023-04-15T05:45:50.089Z,56.55
2023-04-15T05:48:13.624Z,49.88
2023-04-15T05:50:37.266Z,48.05
2023-04-15T05:53:00.815Z,46.55
2023-04-15T05:55:25.817Z,42.90
2023-04-15T05:57:49.379Z,47.15
2023-04-15T06:00:15.325Z,46.40
2023-04-15T06:02:39.039Z,42.30
2023-04-15T06:05:03.561Z,39.95
2023-04-15T06:07:27.185Z,38.47
2023-04-15T06:09:51.210Z,41.92
2023-04-15T06:12:17.041Z,38.50
2023-04-15T06:14:41.002Z,37.28
2023-04-15T06:17:04.507Z,32.40
2023-04-15T06:19:28.089Z,26.35
2023-04-15T06:21:51.606Z,28.58
2023-04-15T06:24:15.486Z,31.23
2023-04-15T06:26:39.027Z,28.02
2023-04-15T06:29:04.254Z,25.85
2023-04-15T06:31:27.963Z,29.13
2023-04-15T06:33:51.575Z,25.02
2023-04-15T06:36:15.294Z,21.58
2023-04-15T06:38:38.980Z,23.42
2023-04-15T06:41:02.609Z,21.70
2023-04-15T06:43:26.260Z,24.25
2023-04-15T06:45:51.267Z,23.77
2023-04-15T06:48:14.893Z,25.77
2023-04-15T06:50:38.539Z,19.80
2023-04-15T06:53:02.272Z,22.45
2023-04-15T06:55:25.888Z,20.90
2023-04-15T06:57:49.626Z,20.15
2023-04-15T07:00:14.902Z,21.63
2023-04-15T07:02:39.950Z,20.42
2023-04-15T07:05:03.609Z,24.38
2023-04-15T07:07:27.800Z,22.30
2023-04-15T07:09:51.327Z,22.40
2023-04-15T07:12:15.321Z,21.30
2023-04-15T07:14:38.842Z,22.85
2023-04-15T07:17:02.712Z,21.10
2023-04-15T07:19:27.758Z,23.33
2023-04-15T07:21:51.396Z,19.35
2023-04-15T07:24:17.514Z,23.65
2023-04-15T07:26:41.125Z,26.10
2023-04-15T07:29:04.644Z,18.85
2023-04-15T07:31:28.514Z,21.27
2023-04-15T07:33:52.169Z,21.42
2023-04-15T07:36:17.296Z,22.45
2023-04-15T07:38:41.673Z,22.98
2023-04-15T07:41:05.695Z,22.17
2023-04-15T07:43:29.283Z,22.80
2023-04-15T07:45:53.181Z,23.80
2023-04-15T07:48:16.882Z,21.75
2023-04-15T07:50:40.635Z,19.42
2023-04-15T07:53:05.753Z,21.40
2023-04-15T07:55:30.679Z,24.77
2023-04-15T07:57:54.209Z,25.75
2023-04-15T08:00:18.614Z,22.35
2023-04-15T08:02:42.790Z,19.08
2023-04-15T08:05:07.732Z,20.95
2023-04-15T08:07:31.479Z,23.38
2023-04-15T08:09:56.704Z,21.85
2023-04-15T08:12:20.631Z,22.42
2023-04-15T08:14:44.297Z,21.40
2023-04-15T08:17:08.027Z,22.20
2023-04-15T08:19:32.293Z,20.48
2023-04-15T08:21:56.153Z,21.13
2023-04-15T08:24:19.913Z,26.25
2023-04-15T08:26:44.807Z,22.73
2023-04-15T08:29:08.369Z,23.50
2023-04-15T08:31:32.075Z,21.73
2023-04-15T08:33:56.928Z,23.13
2023-04-15T08:36:21.039Z,22.77
2023-04-15T08:38:45.827Z,24.05
2023-04-15T08:41:20.152Z,28.77
2023-04-15T08:43:54.440Z,23.90
2023-04-15T08:46:18.303Z,22.23
2023-04-15T08:48:41.980Z,23.75
2023-04-15T08:51:05.919Z,22.30
2023-04-15T08:53:31.548Z,20.77
2023-04-15T08:55:59.658Z,22.75
2023-04-15T08:58:23.529Z,23.48
2023-04-15T09:00:48.807Z,23.35
2023-04-15T09:03:12.906Z,22.60
2023-04-15T09:05:37.771Z,23.90
2023-04-15T09:08:01.562Z,22.77
2023-04-15T09:10:25.284Z,22.95
2023-04-15T09:12:49.161Z,21.88
2023-04-15T09:15:13.820Z,21.40
2023-04-15T09:17:44.903Z,23.25
2023-04-15T09:20:14.256Z,22.63
2023-04-15T09:22:38.585Z,21.13
2023-04-15T09:25:02.161Z,21.02
2023-04-15T09:27:26.516Z,21.90
2023-04-15T09:29:52.361Z,21.58
2023-04-15T09:32:17.677Z,19.98
2023-04-15T09:34:43.094Z,22.13
2023-04-15T09:37:07.695Z,23.17
2023-04-15T09:39:51.071Z,19.95
2023-04-15T09:42:14.674Z,19.67
2023-04-15T09:44:38.612Z,25.50
2023-04-15T09:47:02.419Z,20.95
2023-04-15T09:49:25.983Z,23.73
2023-04-15T09:52:04.083Z,21.40
2023-04-15T09:54:36.814Z,22.08
2023-04-15T09:57:08.270Z,20.65
2023-04-15T09:59:31.899Z,23.75
2023-04-15T10:01:55.880Z,23.40
2023-04-15T10:04:19.865Z,22.40
2023-04-15T10:06:43.590Z,21.38
2023-04-15T10:09:09.768Z,24.73
2023-04-15T10:11:34.955Z,20.45
2023-04-15T10:13:59.193Z,24.13
2023-04-15T10:16:24.676Z,21.00
2023-04-15T10:18:52.715Z,21.73
2023-04-15T10:21:18.764Z,23.95
2023-04-15T10:23:43.039Z,22.42
2023-04-15T10:26:08.985Z,22.55
2023-04-15T10:28:32.820Z,23.05
2023-04-15T10:30:57.109Z,25.88
2023-04-15T10:33:24.411Z,24.17
2023-04-15T10:35:50.259Z,25.98
2023-04-15T10:38:39.906Z,24.13
2023-04-15T10:41:21.448Z,23.73
2023-04-15T10:43:53.068Z,22.23
2023-04-15T10:46:21.893Z,23.20
2023-04-15T10:48:51.349Z,23.52
2023-04-15T10:51:15.852Z,21.35
2023-04-15T10:53:40.051Z,24.20
2023-04-15T10:56:06.010Z,27.63
2023-04-15T10:58:44.159Z,24.55
2023-04-15T11:01:07.882Z,24.75
2023-04-15T11:03:44.032Z,22.45
2023-04-15T11:06:08.458Z,25.60
2023-04-15T11:08:59.048Z,24.05
2023-04-15T11:11:22.779Z,23.40
2023-04-15T11:13:52.472Z,24.17
2023-04-15T11:16:16.702Z,23.00
2023-04-15T11:18:40.267Z,22.73
2023-04-15T11:21:07.512Z,21.80
2023-04-15T11:23:34.721Z,22.52
2023-04-15T11:25:59.432Z,21.95
2023-04-15T11:28:27.595Z,23.58
2023-04-15T11:30:52.749Z,24.60
2023-04-15T11:33:16.284Z,21.20
2023-04-15T11:35:41.048Z,21.90
2023-04-15T11:38:05.605Z,23.67
2023-04-15T11:40:31.680Z,24.33
2023-04-15T11:43:06.923Z,19.33
2023-04-15T11:45:30.898Z,29.25
2023-04-15T11:47:55.952Z,24.92
2023-04-15T11:50:21.239Z,25.90
2023-04-15T11:52:55.217Z,21.95
2023-04-15T11:55:19.084Z,24.85
2023-04-15T11:57:43.155Z,31.98
2023-04-15T12:00:09.726Z,20.73
2023-04-15T12:02:33.491Z,28.85
2023-04-15T12:05:06.776Z,22.63
2023-04-15T12:07:30.383Z,21.85
2023-04-15T12:09:57.670Z,21.15
2023-04-15T12:12:22.602Z,27.70
2023-04-15T12:14:46.252Z,20.10
2023-04-15T12:17:13.276Z,22.33
2023-04-15T12:19:40.087Z,22.08
2023-04-15T12:22:07.566Z,21.33
2023-04-15T12:24:34.605Z,23.63
2023-04-15T12:26:59.538Z,18.77
2023-04-15T12:29:28.441Z,19.88
2023-04-15T12:31:53.692Z,17.63
2023-04-15T12:34:17.489Z,20.77
2023-04-15T12:36:41.217Z,22.00
2023-04-15T12:39:06.828Z,20.10
2023-04-15T12:41:30.535Z,20.33
2023-04-15T12:43:54.061Z,19.98
2023-04-15T12:46:17.942Z,21.35
2023-04-15T12:48:42.131Z,20.83
2023-04-15T12:51:05.864Z,21.35
2023-04-15T12:53:29.657Z,22.75
2023-04-15T12:55:54.630Z,22.27
2023-04-15T12:58:18.342Z,20.88
2023-04-15T13:00:42.156Z,22.55
2023-04-15T13:03:07.012Z,20.70
2023-04-15T13:05:30.994Z,23.50
2023-04-15T13:07:54.533Z,22.75
2023-04-15T13:10:18.460Z,23.52
2023-04-15T13:12:43.594Z,24.92
2023-04-15T13:15:09.640Z,22.40
2023-04-15T13:17:34.445Z,25.40
2023-04-15T13:19:58.198Z,24.48
2023-04-15T13:22:21.724Z,20.92
2023-04-15T13:24:45.630Z,24.95
2023-04-15T13:27:09.160Z,22.73
2023-04-15T13:29:34.534Z,22.27
2023-04-15T13:31:58.303Z,22.02
2023-04-15T13:34:21.952Z,25.75
2023-04-15T13:36:46.035Z,24.45
2023-04-15T13:39:09.804Z,26.05
2023-04-15T13:41:33.389Z,22.92
2023-04-15T13:43:58.427Z,22.15
2023-04-15T13:46:23.448Z,23.63
2023-04-15T13:48:47.066Z,23.80
2023-04-15T13:51:10.620Z,23.40
2023-04-15T13:53:38.187Z,23.30
2023-04-15T13:56:03.069Z,23.08
2023-04-15T13:58:26.733Z,20.88
2023-04-15T14:00:50.517Z,23.95
2023-04-15T14:03:15.738Z,23.25
2023-04-15T14:05:39.653Z,19.90
2023-04-15T14:08:03.327Z,20.75
2023-04-15T14:10:26.866Z,19.38
2023-04-15T14:12:50.757Z,21.77
2023-04-15T14:15:14.378Z,22.10
2023-04-15T14:17:38.728Z,19.63
2023-04-15T14:20:03.936Z,22.27
2023-04-15T14:22:27.666Z,20.27
2023-04-15T14:24:53.172Z,21.95
2023-04-15T14:27:16.879Z,22.00
2023-04-15T14:29:40.460Z,22.90
2023-04-15T14:32:11.369Z,23.20
2023-04-15T14:34:36.057Z,23.25
2023-04-15T14:37:01.124Z,23.15
2023-04-15T14:39:26.326Z,23.52
2023-04-15T14:41:51.669Z,22.52
2023-04-15T14:44:15.410Z,27.52
2023-04-15T14:46:39.309Z,23.13
2023-04-15T14:49:03.427Z,26.13
2023-04-15T14:51:28.386Z,24.42
2023-04-15T14:53:53.354Z,23.85
2023-04-15T14:56:17.016Z,24.58
2023-04-15T14:58:40.659Z,22.98
2023-04-15T15:01:05.512Z,27.05
2023-04-15T15:03:30.316Z,22.85
2023-04-15T15:05:54.305Z,28.05
2023-04-15T15:08:17.970Z,25.98
2023-04-15T15:10:47.166Z,25.08
2023-04-15T15:13:13.025Z,27.55
2023-04-15T15:15:37.326Z,26.58
2023-04-15T15:18:01.387Z,25.40
2023-04-15T15:20:25.441Z,23.75
2023-04-15T15:22:49.068Z,27.55
2023-04-15T15:25:12.634Z,26.65
2023-04-15T15:27:38.404Z,23.77
2023-04-15T15:30:02.082Z,23.30
2023-04-15T15:32:25.706Z,22.15
2023-04-15T15:34:49.298Z,25.63
2023-04-15T15:37:13.000Z,22.23
2023-04-15T15:39:37.183Z,23.50
2023-04-15T15:42:01.080Z,21.50
2023-04-15T15:44:26.086Z,23.40
2023-04-15T15:46:49.740Z,22.92
2023-04-15T15:49:14.163Z,22.25
2023-04-15T15:51:37.727Z,23.02
2023-04-15T15:54:01.268Z,21.15
2023-04-15T15:56:24.934Z,19.20
2023-04-15T15:58:48.457Z,21.02
2023-04-15T16:01:13.493Z,22.63
2023-04-15T16:03:37.574Z,22.67
2023-04-15T16:06:01.634Z,20.00
2023-04-15T16:08:25.193Z,23.35
2023-04-15T16:10:48.827Z,22.15
2023-04-15T16:13:12.737Z,21.50
2023-04-15T16:15:36.351Z,23.55
2023-04-15T16:18:01.495Z,19.13
2023-04-15T16:20:25.140Z,20.15
2023-04-15T16:22:48.833Z,22.15
2023-04-15T16:25:12.507Z,22.52
2023-04-15T16:27:54.179Z,20.50
2023-04-15T16:30:22.166Z,20.33
2023-04-15T16:32:46.059Z,23.58
2023-04-15T16:35:11.716Z,19.17
2023-04-15T16:37:36.184Z,18.73
2023-04-15T16:39:59.894Z,21.15
2023-04-15T16:42:23.382Z,20.95
2023-04-15T16:44:47.052Z,21.95
2023-04-15T16:47:12.019Z,20.25
2023-04-15T16:49:35.987Z,24.25
2023-04-15T16:52:01.049Z,21.13
2023-04-15T16:54:24.612Z,19.55
2023-04-15T16:56:48.130Z,19.40
2023-04-15T16:59:11.752Z,21.65
2023-04-15T17:01:36.649Z,20.63
2023-04-15T17:04:00.556Z,19.15
2023-04-15T17:06:24.357Z,23.88
2023-04-15T17:08:49.777Z,24.55
2023-04-15T17:11:15.144Z,21.20
2023-04-15T17:13:39.157Z,21.65
2023-04-15T17:16:03.140Z,22.27
2023-04-15T17:18:26.966Z,20.05
2023-04-15T17:20:50.668Z,21.92
2023-04-15T17:23:14.307Z,22.40
2023-04-15T17:25:39.469Z,23.67
2023-04-15T17:28:03.119Z,20.73
2023-04-15T17:30:27.127Z,23.10
2023-04-15T17:32:51.018Z,22.00
2023-04-15T17:35:14.584Z,22.60
2023-04-15T17:37:38.206Z,24.08
2023-04-15T17:40:01.814Z,25.63
2023-04-15T17:42:27.217Z,24.60
2023-04-15T17:44:50.860Z,25.58
2023-04-15T17:47:14.551Z,25.13
2023-04-15T17:49:38.272Z,25.05
2023-04-15T17:52:02.122Z,26.88
2023-04-15T17:54:25.706Z,26.00
2023-04-15T17:56:49.853Z,27.20
2023-04-15T17:59:15.294Z,29.52
2023-04-15T18:01:39.024Z,27.13
2023-04-15T18:04:02.844Z,33.05
2023-04-15T18:06:27.724Z,29.95
2023-04-15T18:08:51.289Z,25.98
2023-04-15T18:11:14.955Z,29.23
2023-04-15T18:13:38.543Z,32.35
2023-04-15T18:16:03.605Z,27.75
2023-04-15T18:18:27.228Z,34.15
2023-04-15T18:20:50.836Z,31.27
2023-04-15T18:23:14.923Z,31.38
2023-04-15T18:25:38.965Z,34.92
2023-04-15T18:28:02.530Z,32.10
2023-04-15T18:30:26.164Z,31.38
2023-04-15T18:32:51.246Z,30.58
2023-04-15T18:35:14.953Z,29.92
2023-04-15T18:37:38.537Z,32.38
2023-04-15T18:40:02.180Z,32.78
2023-04-15T18:42:26.172Z,31.10
2023-04-15T18:44:49.855Z,34.33
2023-04-15T18:47:13.456Z,37.25
2023-04-15T18:49:38.521Z,34.17
2023-04-15T18:52:02.036Z,33.20
2023-04-15T18:54:25.854Z,36.85
2023-04-15T18:56:49.366Z,32.38
2023-04-15T18:59:28.824Z,34.70
2023-04-15T19:01:54.020Z,37.13
2023-04-15T19:04:17.647Z,32.53
2023-04-15T19:06:42.660Z,35.88
2023-04-15T19:09:06.746Z,36.78
2023-04-15T19:11:31.309Z,36.20
2023-04-15T19:13:55.385Z,43.72
2023-04-15T19:16:19.038Z,43.90
2023-04-15T19:18:43.012Z,38.28
2023-04-15T19:21:06.643Z,44.40
2023-04-15T19:23:32.665Z,48.50
2023-04-15T19:25:57.079Z,44.38
2023-04-15T19:28:20.670Z,46.17
2023-04-15T19:30:44.378Z,42.67
2023-04-15T19:33:08.080Z,45.72
2023-04-15T19:35:31.782Z,52.60
2023-04-15T19:37:55.384Z,41.42
2023-04-15T19:40:20.682Z,55.53
2023-04-15T19:42:44.253Z,46.95
2023-04-15T19:45:09.312Z,46.10
2023-04-15T19:47:34.741Z,44.60
2023-04-15T19:49:58.513Z,36.67
2023-04-15T19:52:22.457Z,39.28
2023-04-15T19:54:46.107Z,35.88
2023-04-15T19:57:11.209Z,40.10
2023-04-15T19:59:34.982Z,41.92
2023-04-15T20:01:58.789Z,39.22
2023-04-15T20:04:22.911Z,40.90
2023-04-15T20:06:46.527Z,34.33
2023-04-15T20:09:11.407Z,36.50
2023-04-15T20:12:47.932Z,33.05
2023-04-15T20:14:20.458Z,34.67
2023-04-15T20:16:44.014Z,35.53
2023-04-15T20:19:09.120Z,36.30
2023-04-15T20:21:32.730Z,36.92
2023-04-15T20:23:56.346Z,37.00
2023-04-15T20:26:20.771Z,39.00
2023-04-15T20:28:44.462Z,38.80
2023-04-15T20:31:09.444Z,40.10
2023-04-15T20:33:33.220Z,34.60
2023-04-15T20:35:57.055Z,43.20
2023-04-15T20:38:21.809Z,39.22
2023-04-15T20:40:45.666Z,38.33
2023-04-15T20:43:10.856Z,41.13
2023-04-15T20:45:34.641Z,43.45
2023-04-15T20:47:59.706Z,41.95
2023-04-15T20:50:23.315Z,40.42
2023-04-15T20:52:47.071Z,39.42
2023-04-15T20:55:11.223Z,40.45
2023-04-15T20:57:34.977Z,40.58
2023-04-15T20:59:58.597Z,39.00
2023-04-15T21:02:24.202Z,40.47
2023-04-15T21:04:49.741Z,35.90
2023-04-15T21:07:13.455Z,38.35
2023-04-15T21:09:38.658Z,41.53
2023-04-15T21:12:02.585Z,42.88
2023-04-15T21:14:26.164Z,42.75
2023-04-15T21:16:49.971Z,38.40
2023-04-15T21:19:13.680Z,40.13
2023-04-15T21:21:39.171Z,43.90
2023-04-15T21:24:02.874Z,43.67
2023-04-15T21:26:26.503Z,46.42
2023-04-15T21:28:50.023Z,44.15
2023-04-15T21:31:13.670Z,44.53
2023-04-15T21:33:37.272Z,42.58
2023-04-15T21:36:00.959Z,44.20
2023-04-15T21:38:26.089Z,44.40
2023-04-15T21:40:51.621Z,41.85
2023-04-15T21:43:15.124Z,45.97
2023-04-15T21:45:39.756Z,43.28
2023-04-15T21:48:07.571Z,47.40
2023-04-15T21:50:32.045Z,46.47
2023-04-15T21:52:55.563Z,40.00
2023-04-15T21:55:21.086Z,44.88
2023-04-15T21:57:44.629Z,47.47
2023-04-15T22:00:10.539Z,49.22
2023-04-15T22:02:34.253Z,45.60
2023-04-15T22:04:57.911Z,55.67
2023-04-15T22:07:21.419Z,45.78
2023-04-15T22:09:45.106Z,45.92
2023-04-15T22:12:10.159Z,52.97
2023-04-15T22:14:33.825Z,49.97
2023-04-15T22:16:57.863Z,49.60
2023-04-15T22:19:21.651Z,49.20
2023-04-15T22:21:45.165Z,51.67
2023-04-15T22:24:32.108Z,53.03
2023-04-15T22:26:52.335Z,52.05
2023-04-15T22:29:17.446Z,54.33
2023-04-15T22:31:41.185Z,52.20
2023-04-15T22:34:04.865Z,52.05
2023-04-15T22:36:31.168Z,52.63
2023-04-15T22:38:54.841Z,53.65
2023-04-15T22:41:18.536Z,54.58
2023-04-15T22:43:42.082Z,52.95
2023-04-15T22:46:07.241Z,64.45
2023-04-15T22:48:30.869Z,54.55
2023-04-15T22:50:54.650Z,50.55
2023-04-15T22:53:18.862Z,52.10
2023-04-15T22:55:47.193Z,56.13
2023-04-15T22:58:10.818Z,51.85
2023-04-15T23:00:34.494Z,57.65
2023-04-15T23:02:59.744Z,60.97
2023-04-15T23:05:23.802Z,54.83
2023-04-15T23:07:47.372Z,58.05
2023-04-15T23:10:11.505Z,53.30
2023-04-15T23:12:35.152Z,52.50
2023-04-15T23:14:58.717Z,54.22
2023-04-15T23:17:22.382Z,51.35
2023-04-15T23:19:47.481Z,53.47
2023-04-15T23:22:12.256Z,52.05
2023-04-15T23:24:35.947Z,57.33
2023-04-15T23:26:59.500Z,47.08
2023-04-15T23:29:23.145Z,54.60
2023-04-15T23:31:46.733Z,48.78
2023-04-15T23:34:10.589Z,50.55
2023-04-15T23:36:35.645Z,49.22
2023-04-15T23:38:59.292Z,56.03
2023-04-15T23:41:23.400Z,53.92
2023-04-15T23:43:47.208Z,49.33
2023-04-15T23:46:11.913Z,50.97
2023-04-15T23:48:35.603Z,49.05
2023-04-15T23:50:59.265Z,52.20
2023-04-15T23:53:24.405Z,46.88
2023-04-15T23:55:48.016Z,53.10
2023-04-15T23:58:11.848Z,50.83
